createdAt,value
2016-05-25T00:00:22.203Z,0
2016-05-25T00:01:22.034Z,0
2016-05-25T00:02:22.193Z,0
2016-05-25T00:03:22.149Z,0
2016-05-25T00:04:22.152Z,0
2016-05-25T00:05:22.124Z,0
2016-05-25T00:06:22.111Z,0
2016-05-25T00:07:21.957Z,0
2016-05-25T00:08:22.100Z,0
2016-05-25T00:09:22.072Z,0
2016-05-25T00:10:22.043Z,0
2016-05-25T00:11:22.030Z,0
2016-05-25T00:12:21.860Z,0
2016-05-25T00:13:21.707Z,0
2016-05-25T00:14:21.991Z,0
2016-05-25T00:15:21.978Z,0
2016-05-25T00:16:22.232Z,0
2016-05-25T00:17:21.952Z,0
2016-05-25T00:18:21.768Z,0
2016-05-25T00:19:21.911Z,0
2016-05-25T00:20:21.773Z,0
2016-05-25T00:21:21.885Z,0
2016-05-25T00:22:21.715Z,0
2016-05-25T00:23:21.875Z,0
2016-05-25T00:24:21.831Z,0
2016-05-25T00:25:21.678Z,0
2016-05-25T00:26:21.805Z,0
2016-05-25T00:27:21.792Z,0
2016-05-25T00:28:21.623Z,0
2016-05-25T00:29:21.610Z,0
2016-05-25T00:30:21.769Z,0
2016-05-25T00:31:21.819Z,0
2016-05-25T00:32:21.711Z,0
2016-05-25T00:33:21.699Z,0
2016-05-25T00:34:21.702Z,0
2016-05-25T00:35:21.547Z,0
2016-05-25T00:36:21.660Z,0
2016-05-25T00:37:21.630Z,0
2016-05-25T00:38:21.478Z,0
2016-05-25T00:39:21.606Z,0
2016-05-25T00:40:21.593Z,0
2016-05-25T00:41:21.596Z,0
2016-05-25T00:42:21.410Z,0
2016-05-25T00:43:21.397Z,0
2016-05-25T00:44:21.540Z,0
2016-05-25T00:45:21.371Z,0
2016-05-25T00:46:21.890Z,0
2016-05-25T00:47:21.174Z,0
2016-05-25T00:48:21.318Z,0
2016-05-25T00:49:21.460Z,0
2016-05-25T00:50:21.479Z,0
2016-05-25T00:51:21.309Z,0
2016-05-25T00:52:21.140Z,0
2016-05-25T00:53:21.393Z,0
2016-05-25T00:54:21.380Z,0
2016-05-25T00:55:21.368Z,0
2016-05-25T00:56:21.370Z,0
2016-05-25T00:57:21.341Z,0
2016-05-25T00:58:21.172Z,0
2016-05-25T00:59:21.144Z,0
2016-05-25T01:00:21.553Z,0
2016-05-25T01:01:21.070Z,0
2016-05-25T01:02:21.261Z,0
2016-05-25T01:03:21.092Z,0
2016-05-25T01:04:21.094Z,0
2016-05-25T01:05:21.066Z,0
2016-05-25T01:06:21.052Z,0
2016-05-25T01:07:21.180Z,0
2016-05-25T01:08:21.183Z,0
2016-05-25T01:09:20.999Z,0
2016-05-25T01:10:20.674Z,0
2016-05-25T01:11:20.972Z,0
2016-05-25T01:12:20.944Z,0
2016-05-25T01:13:20.931Z,0
2016-05-25T01:14:21.059Z,0
2016-05-25T01:15:21.077Z,0
2016-05-25T01:16:21.954Z,0
2016-05-25T01:17:21.035Z,0
2016-05-25T01:18:20.851Z,0
2016-05-25T01:19:20.994Z,0
2016-05-25T01:20:20.825Z,0
2016-05-25T01:21:21.015Z,0
2016-05-25T01:22:20.799Z,0
2016-05-25T01:23:20.801Z,0
2016-05-25T01:24:20.929Z,0
2016-05-25T01:25:20.760Z,0
2016-05-25T01:26:20.887Z,0
2016-05-25T01:27:20.891Z,0
2016-05-25T01:28:20.722Z,0
2016-05-25T01:29:20.709Z,0
2016-05-25T01:30:20.836Z,0
2016-05-25T01:31:21.370Z,0
2016-05-25T01:32:20.811Z,0
2016-05-25T01:33:20.625Z,0
2016-05-25T01:34:20.784Z,0
2016-05-25T01:35:20.756Z,0
2016-05-25T01:36:20.743Z,0
2016-05-25T01:37:20.433Z,0
2016-05-25T01:38:20.716Z,0
2016-05-25T01:39:20.547Z,0
2016-05-25T01:40:20.692Z,0
2016-05-25T01:41:20.507Z,0
2016-05-25T01:42:20.650Z,0
2016-05-25T01:43:20.496Z,0
2016-05-25T01:44:20.640Z,0
2016-05-25T01:45:20.611Z,0
2016-05-25T01:46:20.504Z,0
2016-05-25T01:47:20.569Z,0
2016-05-25T01:48:20.572Z,0
2016-05-25T01:49:20.575Z,0
2016-05-25T01:50:20.546Z,0
2016-05-25T01:51:20.533Z,0
2016-05-25T01:52:20.505Z,0
2016-05-25T01:53:20.492Z,0
2016-05-25T01:54:20.307Z,0
2016-05-25T01:55:20.294Z,0
2016-05-25T01:56:20.437Z,0
2016-05-25T01:57:20.128Z,0
2016-05-25T01:58:20.255Z,0
2016-05-25T01:59:20.398Z,0
2016-05-25T02:00:20.386Z,0
2016-05-25T02:01:20.545Z,0
2016-05-25T02:02:20.048Z,0
2016-05-25T02:03:20.331Z,0
2016-05-25T02:04:20.319Z,0
2016-05-25T02:05:20.321Z,0
2016-05-25T02:06:20.292Z,0
2016-05-25T02:07:20.280Z,0
2016-05-25T02:08:20.250Z,0
2016-05-25T02:09:20.082Z,0
2016-05-25T02:10:20.241Z,0
2016-05-25T02:11:20.213Z,0
2016-05-25T02:12:20.044Z,0
2016-05-25T02:13:19.874Z,0
2016-05-25T02:14:20.002Z,0
2016-05-25T02:15:20.144Z,0
2016-05-25T02:16:19.835Z,0
2016-05-25T02:17:20.118Z,0
2016-05-25T02:18:20.106Z,0
2016-05-25T02:19:19.937Z,0
2016-05-25T02:20:20.065Z,0
2016-05-25T02:21:19.910Z,0
2016-05-25T02:22:19.882Z,0
2016-05-25T02:23:20.026Z,0
2016-05-25T02:24:19.873Z,0
2016-05-25T02:25:20.000Z,0
2016-05-25T02:26:19.971Z,0
2016-05-25T02:27:19.958Z,0
2016-05-25T02:28:19.961Z,0
2016-05-25T02:29:19.947Z,0
2016-05-25T02:30:19.934Z,0
2016-05-25T02:31:20.359Z,0
2016-05-25T02:32:20.112Z,0
2016-05-25T02:33:19.897Z,0
2016-05-25T02:34:19.853Z,0
2016-05-25T02:35:19.698Z,0
2016-05-25T02:36:19.670Z,0
2016-05-25T02:37:19.672Z,0
2016-05-25T02:38:19.800Z,0
2016-05-25T02:39:19.787Z,0
2016-05-25T02:40:19.759Z,0
2016-05-25T02:41:19.746Z,0
2016-05-25T02:42:19.733Z,0
2016-05-25T02:43:19.564Z,0
2016-05-25T02:44:19.551Z,0
2016-05-25T02:45:19.694Z,0
2016-05-25T02:46:20.197Z,0
2016-05-25T02:47:19.512Z,0
2016-05-25T02:48:19.640Z,0
2016-05-25T02:49:19.642Z,0
2016-05-25T02:50:19.629Z,0
2016-05-25T02:51:19.446Z,0
2016-05-25T02:52:19.275Z,0
2016-05-25T02:53:19.576Z,0
2016-05-25T02:54:19.546Z,0
2016-05-25T02:55:19.549Z,0
2016-05-25T02:56:19.521Z,0
2016-05-25T02:57:19.367Z,0
2016-05-25T02:58:19.354Z,0
2016-05-25T02:59:19.325Z,0
2016-05-25T03:00:19.469Z,0
2016-05-25T03:01:19.909Z,0
2016-05-25T03:02:19.506Z,0
2016-05-25T03:03:19.477Z,0
2016-05-25T03:04:19.401Z,0
2016-05-25T03:05:19.513Z,0
2016-05-25T03:06:19.392Z,0
2016-05-25T03:07:19.034Z,0
2016-05-25T03:08:19.350Z,0
2016-05-25T03:09:19.164Z,0
2016-05-25T03:10:19.199Z,0
2016-05-25T03:11:19.310Z,0
2016-05-25T03:12:19.298Z,0
2016-05-25T03:13:19.269Z,0
2016-05-25T03:14:19.257Z,0
2016-05-25T03:15:19.071Z,0
2016-05-25T03:16:20.199Z,0
2016-05-25T03:17:19.218Z,0
2016-05-25T03:18:19.033Z,0
2016-05-25T03:19:19.176Z,0
2016-05-25T03:20:19.163Z,0
2016-05-25T03:21:19.135Z,0
2016-05-25T03:22:19.122Z,0
2016-05-25T03:23:18.952Z,0
2016-05-25T03:24:19.096Z,0
2016-05-25T03:25:19.083Z,0
2016-05-25T03:26:18.899Z,0
2016-05-25T03:27:19.042Z,0
2016-05-25T03:28:19.029Z,0
2016-05-25T03:29:19.015Z,0
2016-05-25T03:30:18.706Z,0
2016-05-25T03:31:20.396Z,0
2016-05-25T03:32:18.992Z,0
2016-05-25T03:33:18.792Z,0
2016-05-25T03:34:18.936Z,0
2016-05-25T03:35:18.766Z,0
2016-05-25T03:36:18.909Z,5
2016-05-25T03:37:18.897Z,5
2016-05-25T03:38:18.727Z,5
2016-05-25T03:39:18.855Z,5
2016-05-25T03:40:18.842Z,5
2016-05-25T03:41:18.829Z,5
2016-05-25T03:42:18.832Z,5
2016-05-25T03:43:18.803Z,5
2016-05-25T03:44:18.618Z,5
2016-05-25T03:45:18.761Z,5
2016-05-25T03:46:18.655Z,5
2016-05-25T03:47:19.564Z,5
2016-05-25T03:48:18.567Z,5
2016-05-25T03:49:18.710Z,5
2016-05-25T03:50:18.682Z,5
2016-05-25T03:51:18.684Z,10
2016-05-25T03:52:18.671Z,10
2016-05-25T03:53:18.502Z,10
2016-05-25T03:54:18.629Z,10
2016-05-25T03:55:18.321Z,10
2016-05-25T03:56:18.463Z,10
2016-05-25T03:57:18.466Z,10
2016-05-25T03:58:18.251Z,10
2016-05-25T03:59:18.550Z,10
2016-05-25T04:00:18.552Z,10
2016-05-25T04:01:18.914Z,10
2016-05-25T04:02:18.824Z,15
2016-05-25T04:03:18.326Z,15
2016-05-25T04:04:18.485Z,15
2016-05-25T04:05:18.301Z,15
2016-05-25T04:06:18.443Z,20
2016-05-25T04:07:18.445Z,20
2016-05-25T04:08:18.418Z,20
2016-05-25T04:09:18.405Z,20
2016-05-25T04:10:18.392Z,15
2016-05-25T04:11:18.378Z,15
2016-05-25T04:12:18.413Z,15
2016-05-25T04:13:18.353Z,15
2016-05-25T04:14:18.153Z,15
2016-05-25T04:15:18.311Z,15
2016-05-25T04:16:18.330Z,15
2016-05-25T04:17:18.457Z,15
2016-05-25T04:18:18.257Z,15
2016-05-25T04:19:18.267Z,20
2016-05-25T04:20:18.263Z,15
2016-05-25T04:21:18.320Z,15
2016-05-25T04:22:18.285Z,20
2016-05-25T04:23:18.357Z,25
2016-05-25T04:24:18.306Z,30
2016-05-25T04:25:18.380Z,35
2016-05-25T04:26:18.313Z,35
2016-05-25T04:27:18.137Z,30
2016-05-25T04:28:18.117Z,30
2016-05-25T04:29:18.263Z,30
2016-05-25T04:30:18.629Z,35
2016-05-25T04:31:18.088Z,35
2016-05-25T04:32:17.921Z,45
2016-05-25T04:33:18.208Z,45
2016-05-25T04:34:18.196Z,45
2016-05-25T04:35:18.809Z,45
2016-05-25T04:36:18.173Z,45
2016-05-25T04:37:18.161Z,45
2016-05-25T04:38:18.150Z,45
2016-05-25T04:39:18.137Z,45
2016-05-25T04:40:19.296Z,45
2016-05-25T04:41:18.096Z,45
2016-05-25T04:42:18.084Z,40
2016-05-25T04:43:18.133Z,40
2016-05-25T04:44:17.918Z,40
2016-05-25T04:45:19.639Z,40
2016-05-25T04:46:18.329Z,45
2016-05-25T04:47:17.723Z,45
2016-05-25T04:48:17.834Z,45
2016-05-25T04:49:17.993Z,45
2016-05-25T04:50:17.840Z,45
2016-05-25T04:51:17.795Z,50
2016-05-25T04:52:17.955Z,50
2016-05-25T04:53:17.941Z,55
2016-05-25T04:54:17.929Z,65
2016-05-25T04:55:17.916Z,70
2016-05-25T04:56:17.886Z,75
2016-05-25T04:57:17.874Z,80
2016-05-25T04:58:17.877Z,80
2016-05-25T04:59:17.692Z,85
2016-05-25T05:00:17.664Z,90
2016-05-25T05:01:17.854Z,90
2016-05-25T05:02:18.482Z,85
2016-05-25T05:03:17.797Z,85
2016-05-25T05:04:17.612Z,80
2016-05-25T05:05:17.740Z,80
2016-05-25T05:06:17.570Z,75
2016-05-25T05:07:17.729Z,75
2016-05-25T05:08:17.544Z,75
2016-05-25T05:09:17.687Z,65
2016-05-25T05:10:17.674Z,60
2016-05-25T05:11:17.662Z,50
2016-05-25T05:12:17.665Z,50
2016-05-25T05:13:17.495Z,45
2016-05-25T05:14:17.467Z,40
2016-05-25T05:15:17.610Z,40
2016-05-25T05:16:17.629Z,45
2016-05-25T05:17:17.287Z,50
2016-05-25T05:18:17.556Z,60
2016-05-25T05:19:17.542Z,75
2016-05-25T05:20:17.374Z,80
2016-05-25T05:21:17.517Z,85
2016-05-25T05:22:17.504Z,85
2016-05-25T05:23:17.491Z,90
2016-05-25T05:24:17.494Z,90
2016-05-25T05:25:17.450Z,95
2016-05-25T05:26:19.547Z,95
2016-05-25T05:27:17.111Z,95
2016-05-25T05:28:17.270Z,95
2016-05-25T05:29:17.241Z,95
2016-05-25T05:30:17.385Z,95
2016-05-25T05:31:18.435Z,95
2016-05-25T05:32:17.125Z,95
2016-05-25T05:33:17.330Z,85
2016-05-25T05:34:17.333Z,75
2016-05-25T05:35:17.367Z,75
2016-05-25T05:36:17.167Z,75
2016-05-25T05:37:17.138Z,75
2016-05-25T05:38:17.266Z,70
2016-05-25T05:39:17.096Z,70
2016-05-25T05:40:17.224Z,70
2016-05-25T05:41:17.227Z,70
2016-05-25T05:42:17.042Z,60
2016-05-25T05:43:17.029Z,55
2016-05-25T05:44:17.172Z,50
2016-05-25T05:45:17.176Z,50
2016-05-25T05:46:16.850Z,50
2016-05-25T05:47:18.056Z,55
2016-05-25T05:48:16.965Z,60
2016-05-25T05:49:17.108Z,70
2016-05-25T05:50:16.939Z,60
2016-05-25T05:51:17.098Z,55
2016-05-25T05:52:16.928Z,55
2016-05-25T05:53:17.056Z,55
2016-05-25T05:54:17.074Z,55
2016-05-25T05:55:17.031Z,55
2016-05-25T05:56:16.861Z,55
2016-05-25T05:57:16.833Z,50
2016-05-25T05:58:16.976Z,50
2016-05-25T05:59:16.978Z,50
2016-05-25T06:00:16.809Z,55
2016-05-25T06:01:17.296Z,50
2016-05-25T06:02:17.986Z,45
2016-05-25T06:03:16.911Z,45
2016-05-25T06:04:16.882Z,45
2016-05-25T06:05:16.713Z,50
2016-05-25T06:06:16.857Z,45
2016-05-25T06:07:16.843Z,45
2016-05-25T06:08:16.831Z,45
2016-05-25T06:09:16.849Z,45
2016-05-25T06:10:16.805Z,45
2016-05-25T06:11:16.777Z,50
2016-05-25T06:12:16.607Z,60
2016-05-25T06:13:16.438Z,65
2016-05-25T06:14:16.737Z,80
2016-05-25T06:15:16.740Z,90
2016-05-25T06:16:16.712Z,105
2016-05-25T06:17:16.714Z,115
2016-05-25T06:18:16.687Z,115
2016-05-25T06:19:16.689Z,105
2016-05-25T06:20:16.659Z,95
2016-05-25T06:21:16.663Z,90
2016-05-25T06:22:16.618Z,90
2016-05-25T06:23:17.325Z,95
2016-05-25T06:24:16.593Z,95
2016-05-25T06:25:16.580Z,100
2016-05-25T06:26:16.567Z,115
2016-05-25T06:27:16.553Z,120
2016-05-25T06:28:16.056Z,120
2016-05-25T06:29:16.511Z,125
2016-05-25T06:30:16.202Z,135
2016-05-25T06:31:16.658Z,145
2016-05-25T06:32:16.536Z,145
2016-05-25T06:33:16.477Z,135
2016-05-25T06:34:16.292Z,130
2016-05-25T06:35:16.263Z,130
2016-05-25T06:36:16.281Z,130
2016-05-25T06:37:16.409Z,125
2016-05-25T06:38:16.083Z,125
2016-05-25T06:39:16.383Z,130
2016-05-25T06:40:16.370Z,135
2016-05-25T06:41:16.342Z,140
2016-05-25T06:42:16.329Z,140
2016-05-25T06:43:16.347Z,135
2016-05-25T06:44:16.006Z,130
2016-05-25T06:45:15.837Z,125
2016-05-25T06:46:16.276Z,140
2016-05-25T06:47:16.310Z,150
2016-05-25T06:48:16.251Z,140
2016-05-25T06:49:15.925Z,110
2016-05-25T06:50:16.226Z,80
2016-05-25T06:51:16.212Z,70
2016-05-25T06:52:16.198Z,60
2016-05-25T06:53:16.171Z,60
2016-05-25T06:54:16.158Z,55
2016-05-25T06:55:16.161Z,55
2016-05-25T06:56:15.820Z,50
2016-05-25T06:57:16.134Z,50
2016-05-25T06:58:16.106Z,50
2016-05-25T06:59:16.124Z,50
2016-05-25T07:00:16.095Z,50
2016-05-25T07:01:16.270Z,50
2016-05-25T07:02:16.445Z,50
2016-05-25T07:03:16.057Z,50
2016-05-25T07:04:16.028Z,55
2016-05-25T07:05:15.872Z,55
2016-05-25T07:06:15.844Z,60
2016-05-25T07:07:15.846Z,50
2016-05-25T07:08:15.818Z,45
2016-05-25T07:09:15.961Z,40
2016-05-25T07:10:15.963Z,40
2016-05-25T07:11:15.935Z,40
2016-05-25T07:12:15.766Z,35
2016-05-25T07:13:15.924Z,35
2016-05-25T07:14:15.896Z,35
2016-05-25T07:15:15.883Z,35
2016-05-25T07:16:15.870Z,40
2016-05-25T07:17:16.638Z,45
2016-05-25T07:18:15.673Z,55
2016-05-25T07:19:15.816Z,60
2016-05-25T07:20:15.646Z,65
2016-05-25T07:21:15.634Z,80
2016-05-25T07:22:15.637Z,95
2016-05-25T07:23:15.749Z,95
2016-05-25T07:24:15.611Z,95
2016-05-25T07:25:15.739Z,110
2016-05-25T07:26:15.725Z,125
2016-05-25T07:27:15.712Z,125
2016-05-25T07:28:15.543Z,135
2016-05-25T07:29:15.670Z,140
2016-05-25T07:30:15.673Z,150
2016-05-25T07:31:15.661Z,160
2016-05-25T07:32:15.508Z,165
2016-05-25T07:33:15.447Z,170
2016-05-25T07:34:15.591Z,165
2016-05-25T07:35:15.594Z,155
2016-05-25T07:36:15.424Z,145
2016-05-25T07:37:15.553Z,135
2016-05-25T07:38:15.555Z,115
2016-05-25T07:39:15.370Z,105
2016-05-25T07:40:15.513Z,105
2016-05-25T07:41:15.360Z,105
2016-05-25T07:42:15.487Z,95
2016-05-25T07:43:15.474Z,75
2016-05-25T07:44:15.477Z,80
2016-05-25T07:45:15.464Z,110
2016-05-25T07:46:15.435Z,150
2016-05-25T07:47:15.907Z,180
2016-05-25T07:48:15.254Z,190
2016-05-25T07:49:15.240Z,200
2016-05-25T07:50:15.400Z,200
2016-05-25T07:51:15.059Z,200
2016-05-25T07:52:15.374Z,205
2016-05-25T07:53:15.345Z,200
2016-05-25T07:54:15.379Z,190
2016-05-25T07:55:15.179Z,180
2016-05-25T07:56:15.010Z,170
2016-05-25T07:57:18.653Z,160
2016-05-25T07:58:14.842Z,160
2016-05-25T07:59:15.268Z,160
2016-05-25T08:00:15.239Z,155
2016-05-25T08:01:15.069Z,165
2016-05-25T08:02:18.181Z,175
2016-05-25T08:03:15.044Z,190
2016-05-25T08:04:15.031Z,205
2016-05-25T08:05:15.175Z,210
2016-05-25T08:06:15.177Z,205
2016-05-25T08:07:15.102Z,190
2016-05-25T08:08:15.136Z,175
2016-05-25T08:09:15.169Z,175
2016-05-25T08:10:14.953Z,170
2016-05-25T08:11:15.097Z,140
2016-05-25T08:12:17.522Z,125
2016-05-25T08:13:15.055Z,110
2016-05-25T08:14:15.041Z,100
2016-05-25T08:15:15.029Z,105
2016-05-25T08:16:15.016Z,115
2016-05-25T08:17:19.894Z,130
2016-05-25T08:33:31.268Z,350
2016-05-25T08:34:30.723Z,365
2016-05-25T08:35:31.180Z,375
2016-05-25T08:36:31.166Z,380
2016-05-25T08:37:31.186Z,405
2016-05-25T08:38:33.031Z,450
2016-05-25T08:39:31.128Z,485
2016-05-25T08:40:30.958Z,535
2016-05-25T08:41:31.117Z,380
2016-05-25T08:42:30.792Z,340
2016-05-25T08:43:32.529Z,390
2016-05-25T08:44:31.125Z,360
2016-05-25T08:45:31.066Z,305
2016-05-25T08:46:31.568Z,290
2016-05-25T08:47:30.946Z,285
2016-05-25T08:48:33.136Z,285
2016-05-25T08:49:30.857Z,275
2016-05-25T08:50:30.829Z,255
2016-05-25T08:51:31.004Z,200
2016-05-25T08:52:30.976Z,155
2016-05-25T08:53:30.946Z,135
2016-05-25T08:54:30.777Z,135
2016-05-25T08:55:30.937Z,125
2016-05-25T08:56:30.923Z,130
2016-05-25T08:57:30.910Z,130
2016-05-25T08:58:30.898Z,135
2016-05-25T08:59:30.901Z,135
2016-05-25T09:00:30.700Z,150
2016-05-25T09:01:30.921Z,165
2016-05-25T09:02:32.971Z,175
2016-05-25T09:03:30.676Z,180
2016-05-25T09:04:30.819Z,180
2016-05-25T09:05:30.823Z,175
2016-05-25T09:06:30.794Z,170
2016-05-25T09:07:30.797Z,160
2016-05-25T09:08:32.519Z,150
2016-05-25T09:09:30.442Z,155
2016-05-25T09:10:30.586Z,155
2016-05-25T09:11:30.730Z,145
2016-05-25T09:12:30.576Z,135
2016-05-25T09:13:31.438Z,125
2016-05-25T09:14:30.691Z,115
2016-05-25T09:15:30.709Z,110
2016-05-25T09:16:30.900Z,105
2016-05-25T09:17:32.698Z,100
2016-05-25T09:18:30.499Z,105
2016-05-25T09:19:30.829Z,110
2016-05-25T09:20:30.613Z,115
2016-05-25T09:21:30.600Z,120
2016-05-25T09:22:32.197Z,125
2016-05-25T09:23:30.590Z,130
2016-05-25T09:24:30.421Z,135
2016-05-25T09:25:30.251Z,140
2016-05-25T09:26:30.551Z,140
2016-05-25T09:27:32.615Z,140
2016-05-25T09:28:30.384Z,135
2016-05-25T09:29:30.356Z,140
2016-05-25T09:30:30.499Z,150
2016-05-25T09:31:30.049Z,160
2016-05-25T09:32:32.317Z,160
2016-05-25T09:33:30.445Z,155
2016-05-25T09:34:30.448Z,150
2016-05-25T09:35:30.419Z,145
2016-05-25T09:36:30.406Z,140
2016-05-25T09:37:30.408Z,140
2016-05-25T09:38:30.240Z,145
2016-05-25T09:39:30.383Z,150
2016-05-25T09:40:30.369Z,165
2016-05-25T09:41:30.358Z,180
2016-05-25T09:42:30.189Z,190
2016-05-25T09:43:30.331Z,190
2016-05-25T09:44:30.161Z,190
2016-05-25T09:45:30.149Z,190
2016-05-25T09:46:30.574Z,185
2016-05-25T09:47:33.889Z,180
2016-05-25T09:48:30.266Z,175
2016-05-25T09:49:30.269Z,175
2016-05-25T09:50:30.241Z,180
2016-05-25T09:51:30.227Z,185
2016-05-25T09:52:29.918Z,195
2016-05-25T09:53:30.202Z,210
2016-05-25T09:54:30.204Z,220
2016-05-25T09:55:30.191Z,225
2016-05-25T09:56:30.162Z,220
2016-05-25T09:57:29.994Z,220
2016-05-25T09:58:30.137Z,220
2016-05-25T09:59:30.139Z,230
2016-05-25T10:00:30.111Z,235
2016-05-25T10:01:30.114Z,240
2016-05-25T10:02:33.289Z,235
2016-05-25T10:03:30.072Z,245
2016-05-25T10:04:30.090Z,250
2016-05-25T10:05:30.062Z,260
2016-05-25T10:06:30.033Z,260
2016-05-25T10:07:31.395Z,265
2016-05-25T10:08:30.008Z,275
2016-05-25T10:09:29.839Z,290
2016-05-25T10:10:29.700Z,295
2016-05-25T10:11:29.969Z,300
2016-05-25T10:12:29.956Z,305
2016-05-25T10:13:29.802Z,300
2016-05-25T10:14:29.946Z,295
2016-05-25T10:15:29.933Z,290
2016-05-25T10:16:29.764Z,285
2016-05-25T10:17:30.080Z,290
2016-05-25T10:18:29.894Z,295
2016-05-25T10:19:29.880Z,315
2016-05-25T10:20:29.883Z,335
2016-05-25T10:21:29.871Z,355
2016-05-25T10:22:29.686Z,375
2016-05-25T10:23:29.704Z,375
2016-05-25T10:24:29.677Z,380
2016-05-25T10:25:29.647Z,385
2016-05-25T10:26:29.806Z,400
2016-05-25T10:27:29.794Z,415
2016-05-25T10:28:29.796Z,460
2016-05-25T10:29:29.767Z,515
2016-05-25T10:30:29.598Z,600
2016-05-25T10:31:29.601Z,925
2016-05-25T10:32:29.604Z,745
2016-05-25T10:33:29.418Z,920
2016-05-25T10:34:29.703Z,625
2016-05-25T10:35:29.721Z,590
2016-05-25T10:36:29.692Z,565
2016-05-25T10:37:29.367Z,540
2016-05-25T10:38:29.667Z,575
2016-05-25T10:39:29.513Z,655
2016-05-25T10:40:29.656Z,775
2016-05-25T10:41:29.659Z,760
2016-05-25T10:42:29.490Z,720
2016-05-25T10:43:29.617Z,875
2016-05-25T10:44:29.619Z,890
2016-05-25T10:45:29.450Z,740
2016-05-25T10:46:29.438Z,760
2016-05-25T10:47:29.972Z,690
2016-05-25T10:48:29.584Z,675
2016-05-25T10:49:29.586Z,740
2016-05-25T10:50:29.574Z,685
2016-05-25T10:51:29.561Z,610
2016-05-25T10:52:29.549Z,470
2016-05-25T10:53:29.551Z,420
2016-05-25T10:54:29.382Z,390
2016-05-25T10:55:29.385Z,370
2016-05-25T10:56:29.512Z,365
2016-05-25T10:57:31.890Z,385
2016-05-25T10:58:29.360Z,380
2016-05-25T10:59:29.520Z,400
2016-05-25T11:00:29.491Z,400
2016-05-25T11:01:29.697Z,365
2016-05-25T11:02:29.341Z,315
2016-05-25T11:03:29.312Z,275
2016-05-25T11:04:29.471Z,255
2016-05-25T11:05:29.459Z,230
2016-05-25T11:06:29.445Z,220
2016-05-25T11:07:31.557Z,215
2016-05-25T11:08:29.122Z,205
2016-05-25T11:09:29.422Z,195
2016-05-25T11:10:29.409Z,190
2016-05-25T11:11:29.412Z,185
2016-05-25T11:12:29.258Z,185
2016-05-25T11:13:29.400Z,180
2016-05-25T11:14:29.403Z,185
2016-05-25T11:15:29.375Z,200
2016-05-25T11:16:29.378Z,200
2016-05-25T11:17:29.616Z,185
2016-05-25T11:18:29.197Z,195
2016-05-25T11:19:29.355Z,205
2016-05-25T11:20:29.357Z,220
2016-05-25T11:21:29.314Z,230
2016-05-25T11:22:29.332Z,230
2016-05-25T11:23:29.303Z,225
2016-05-25T11:24:29.180Z,230
2016-05-25T11:25:28.825Z,230
2016-05-25T11:26:29.265Z,235
2016-05-25T11:27:30.376Z,240
2016-05-25T11:28:29.270Z,250
2016-05-25T11:29:29.101Z,255
2016-05-25T11:30:29.087Z,260
2016-05-25T11:31:29.074Z,255
2016-05-25T11:32:29.577Z,260
2016-05-25T11:33:29.065Z,265
2016-05-25T11:34:29.193Z,285
2016-05-25T11:35:29.054Z,290
2016-05-25T11:36:29.181Z,260
2016-05-25T11:37:29.045Z,265
2016-05-25T11:38:28.857Z,250
2016-05-25T11:39:29.003Z,230
2016-05-25T11:40:29.162Z,225
2016-05-25T11:41:28.974Z,260
2016-05-25T11:42:29.167Z,260
2016-05-25T11:43:29.122Z,280
2016-05-25T11:44:28.950Z,300
2016-05-25T11:45:28.938Z,340
2016-05-25T11:46:29.097Z,370
2016-05-25T11:47:33.056Z,390
2016-05-25T11:48:28.931Z,395
2016-05-25T11:49:29.058Z,395
2016-05-25T11:50:29.045Z,390
2016-05-25T11:51:28.735Z,385
2016-05-25T11:52:28.941Z,380
2016-05-25T11:53:28.928Z,360
2016-05-25T11:54:29.024Z,340
2016-05-25T11:55:29.011Z,325
2016-05-25T11:56:29.030Z,310
2016-05-25T11:57:28.985Z,315
2016-05-25T11:58:28.832Z,335
2016-05-25T11:59:28.991Z,335
2016-05-25T12:00:28.854Z,350
2016-05-25T12:01:28.949Z,370
2016-05-25T12:02:28.827Z,380
2016-05-25T12:03:31.099Z,350
2016-05-25T12:04:28.927Z,350
2016-05-25T12:05:28.773Z,370
2016-05-25T12:06:28.884Z,360
2016-05-25T12:07:28.747Z,350
2016-05-25T12:08:28.781Z,340
2016-05-25T12:09:28.737Z,325
2016-05-25T12:10:28.896Z,305
2016-05-25T12:11:28.601Z,305
2016-05-25T12:12:28.681Z,290
2016-05-25T12:13:28.873Z,275
2016-05-25T12:14:28.672Z,270
2016-05-25T12:15:28.831Z,255
2016-05-25T12:16:28.817Z,255
2016-05-25T12:17:29.336Z,260
2016-05-25T12:18:29.058Z,260
2016-05-25T12:19:28.780Z,280
2016-05-25T12:20:28.767Z,315
2016-05-25T12:21:28.769Z,350
2016-05-25T12:22:28.772Z,380
2016-05-25T12:23:28.603Z,360
2016-05-25T12:24:28.746Z,370
2016-05-25T12:25:28.733Z,390
2016-05-25T12:26:28.719Z,410
2016-05-25T12:27:28.535Z,445
2016-05-25T12:28:28.679Z,420
2016-05-25T12:29:28.682Z,455
2016-05-25T12:30:28.699Z,480
2016-05-25T12:31:28.702Z,475
2016-05-25T12:32:30.329Z,435
2016-05-25T12:33:28.645Z,420
2016-05-25T12:34:28.507Z,415
2016-05-25T12:35:28.651Z,420
2016-05-25T12:36:28.621Z,415
2016-05-25T12:37:28.499Z,415
2016-05-25T12:38:28.596Z,425
2016-05-25T12:39:28.615Z,445
2016-05-25T12:40:28.570Z,465
2016-05-25T12:41:28.557Z,480
2016-05-25T12:42:28.278Z,515
2016-05-25T12:43:28.562Z,550
2016-05-25T12:44:28.393Z,625
2016-05-25T12:45:28.537Z,755
2016-05-25T12:46:28.367Z,780
2016-05-25T12:47:29.651Z,865
2016-05-25T12:48:28.373Z,825
2016-05-25T12:49:28.548Z,950
2016-05-25T12:50:28.348Z,1765
2016-05-25T12:51:28.365Z,815
2016-05-25T12:52:30.039Z,1205
2016-05-25T12:53:28.480Z,1230
2016-05-25T12:54:28.342Z,1615
2016-05-25T12:55:28.298Z,890
2016-05-25T12:56:28.472Z,905
2016-05-25T12:57:28.474Z,1485
2016-05-25T12:58:28.447Z,790
2016-05-25T12:59:28.449Z,1145
2016-05-25T13:00:28.436Z,1920
2016-05-25T13:01:28.501Z,1800
2016-05-25T13:02:28.442Z,1400
2016-05-25T13:03:28.429Z,1170
2016-05-25T13:04:28.415Z,1630
2016-05-25T13:05:28.419Z,1420
2016-05-25T13:06:28.484Z,1285
2016-05-25T13:07:28.252Z,820
2016-05-25T13:08:28.239Z,635
2016-05-25T13:09:28.414Z,565
2016-05-25T13:10:28.400Z,535
2016-05-25T13:11:28.263Z,570
2016-05-25T13:12:28.078Z,560
2016-05-25T13:13:28.409Z,575
2016-05-25T13:14:28.240Z,545
2016-05-25T13:15:28.414Z,495
2016-05-25T13:16:28.073Z,470
2016-05-25T13:17:29.045Z,475
2016-05-25T13:18:28.250Z,485
2016-05-25T13:19:28.206Z,485
2016-05-25T13:20:28.365Z,685
2016-05-25T13:21:28.197Z,595
2016-05-25T13:22:28.042Z,540
2016-05-25T13:23:28.342Z,455
2016-05-25T13:24:28.375Z,370
2016-05-25T13:25:28.369Z,345
2016-05-25T13:26:28.395Z,340
2016-05-25T13:27:28.811Z,365
2016-05-25T13:28:28.260Z,435
2016-05-25T13:29:28.426Z,525
2016-05-25T13:30:28.496Z,475
2016-05-25T13:31:28.304Z,430
2016-05-25T13:32:29.518Z,415
2016-05-25T13:33:28.482Z,455
2016-05-25T13:34:28.494Z,430
2016-05-25T13:35:28.190Z,405
2016-05-25T13:36:28.493Z,390
2016-05-25T13:37:28.389Z,380
2016-05-25T13:38:28.207Z,400
2016-05-25T13:39:28.307Z,495
2016-05-25T13:40:28.313Z,710
2016-05-25T13:41:28.395Z,670
2016-05-25T13:42:28.336Z,785
2016-05-25T13:43:28.185Z,695
2016-05-25T13:44:28.453Z,475
2016-05-25T13:45:28.473Z,285
2016-05-25T13:46:28.287Z,225
2016-05-25T13:47:28.432Z,220
2016-05-25T13:48:28.262Z,205
2016-05-25T13:49:28.422Z,190
2016-05-25T13:50:28.363Z,195
2016-05-25T13:51:28.663Z,210
2016-05-25T13:52:28.430Z,230
2016-05-25T13:53:28.480Z,245
2016-05-25T13:54:28.389Z,260
2016-05-25T13:55:28.377Z,275
2016-05-25T13:56:28.254Z,280
2016-05-25T13:57:28.382Z,275
2016-05-25T13:58:28.354Z,290
2016-05-25T13:59:28.356Z,310
2016-05-25T14:00:28.374Z,310
2016-05-25T14:01:28.329Z,325
2016-05-25T14:02:30.879Z,345
2016-05-25T14:03:28.022Z,345
2016-05-25T14:04:28.370Z,355
2016-05-25T14:05:28.309Z,375
2016-05-25T14:06:28.311Z,425
2016-05-25T14:07:28.080Z,990
2016-05-25T14:08:28.301Z,935
2016-05-25T14:09:28.320Z,915
2016-05-25T14:10:28.292Z,935
2016-05-25T14:11:28.106Z,820
2016-05-25T14:12:29.094Z,605
2016-05-25T14:13:28.299Z,455
2016-05-25T14:14:28.084Z,235
2016-05-25T14:15:28.227Z,210
2016-05-25T14:16:28.230Z,205
2016-05-25T14:17:30.279Z,200
2016-05-25T14:18:28.141Z,200
2016-05-25T14:19:27.925Z,200
2016-05-25T14:20:28.099Z,205
2016-05-25T14:21:27.916Z,215
2016-05-25T14:22:29.668Z,240
2016-05-25T14:23:28.061Z,255